Terminal Aerodrome Forecast
Issued by NWS

Home | Current Version | Previous Version | Text Only | Print | Product List | Glossary On
Versions: 1 2 3 4 5 6 7 8 9 10 11 12 13 14 15 16 17 18 19 20 21 22 23 24 25 26 27 28 29 30 31
000
FTAK31 PANC 051911 AAA
TAFADQ
TAF AMD
PADQ 051911Z 0519/0618 09006KT 6SM -SN OVC025
      TEMPO 0519/0523 3SM -SN BR BKN012 OVC025
     FM052300 06007KT 3SM -SN BKN012 OVC020
     FM061000 36007KT 6SM -SN OVC020=

USA.gov is the U.S. government's official web portal to all federal, state and local government web resources and services.